Time;durP1;ratioP1;P1;durP2;ratioP2;P2;SDS_P1;SDS_P2;PMS_P1;PMS_P2;Temp;Humidity;BMP_temperature;BMP_pressure;BME280_temperature;BME280_humidity;BME280_pressure;Samples;Min_cycle;Max_cycle;Signal;HPM_P1;HPM_P2
2023/09/23 00:00:14;;;;;;;1.75;1.10;;;11.30;99.90;;;;;;4978574;28;20031;-80
2023/09/23 00:02:43;;;;;;;4.65;1.25;;;11.30;99.90;;;;;;4978441;28;20490;-80
2023/09/23 00:05:10;;;;;;;4.68;1.10;;;11.30;99.90;;;;;;4978144;28;20388;-80
2023/09/23 00:07:36;;;;;;;1.50;1.10;;;11.40;99.90;;;;;;4978393;28;20103;-80
2023/09/23 00:10:05;;;;;;;1.77;1.05;;;11.40;99.90;;;;;;4978330;28;20476;-80
2023/09/23 00:12:30;;;;;;;2.40;1.10;;;11.40;99.90;;;;;;4978853;28;20023;-80
2023/09/23 00:14:56;;;;;;;1.85;1.20;;;11.50;99.90;;;;;;4977459;28;20038;-80
2023/09/23 00:17:22;;;;;;;1.73;1.00;;;11.50;99.90;;;;;;4978024;28;20049;-80
2023/09/23 00:19:48;;;;;;;1.65;1.10;;;11.50;99.90;;;;;;4978047;28;20027;-80
2023/09/23 00:22:13;;;;;;;1.90;1.40;;;11.50;99.90;;;;;;4977310;28;20547;-80
2023/09/23 00:24:39;;;;;;;1.90;1.00;;;11.60;99.90;;;;;;4976751;28;20041;-80
2023/09/23 00:27:04;;;;;;;3.30;1.20;;;11.60;99.90;;;;;;4977327;28;20029;-80
2023/09/23 00:29:30;;;;;;;0.98;0.85;;;11.60;99.90;;;;;;4975339;28;20035;-80
2023/09/23 00:31:57;;;;;;;3.28;1.13;;;11.60;99.90;;;;;;4976317;28;20042;-80
2023/09/23 00:34:23;;;;;;;2.15;0.95;;;11.60;99.90;;;;;;4975863;28;20031;-80
2023/09/23 00:36:50;;;;;;;1.80;1.30;;;11.60;99.90;;;;;;4975851;28;20034;-79
2023/09/23 00:39:16;;;;;;;2.30;1.20;;;11.60;99.90;;;;;;4976158;28;20014;-80
2023/09/23 00:41:41;;;;;;;1.23;0.90;;;11.60;99.90;;;;;;4970587;28;20023;-80
2023/09/23 00:44:07;;;;;;;3.53;1.40;;;11.60;99.90;;;;;;4975052;28;20359;-80
2023/09/23 00:46:35;;;;;;;2.78;1.00;;;11.60;99.90;;;;;;4974677;28;20054;-80
2023/09/23 00:49:01;;;;;;;2.95;1.23;;;11.60;99.90;;;;;;4974899;28;20375;-80
2023/09/23 00:51:30;;;;;;;4.57;0.98;;;11.60;99.90;;;;;;4974753;28;20482;-80
2023/09/23 00:53:57;;;;;;;1.50;0.98;;;11.60;99.90;;;;;;4974620;28;20027;-80
2023/09/23 00:56:24;;;;;;;1.50;0.90;;;11.60;99.90;;;;;;4975993;28;20097;-80
2023/09/23 00:58:50;;;;;;;1.75;1.00;;;11.60;99.90;;;;;;4977473;28;20109;-80
2023/09/23 01:01:16;;;;;;;1.70;1.05;;;11.60;99.90;;;;;;4977175;28;20022;-80
2023/09/23 01:03:42;;;;;;;2.13;1.00;;;11.60;99.90;;;;;;4977496;28;20171;-80
2023/09/23 01:06:17;;;;;;;1.65;1.02;;;11.60;99.90;;;;;;4976659;28;20044;-80
2023/09/23 01:08:44;;;;;;;0.95;0.82;;;11.60;99.90;;;;;;4978199;28;20051;-80
2023/09/23 01:11:10;;;;;;;3.70;1.00;;;11.60;99.90;;;;;;4977031;28;20097;-80
2023/09/23 01:13:37;;;;;;;1.25;1.00;;;11.70;99.90;;;;;;4976696;28;20512;-80
2023/09/23 01:16:07;;;;;;;2.45;1.00;;;11.70;99.90;;;;;;4976802;28;20061;-80
2023/09/23 01:18:34;;;;;;;1.70;1.00;;;11.70;99.90;;;;;;4976454;28;20031;-80
2023/09/23 01:21:01;;;;;;;1.50;0.80;;;11.70;99.90;;;;;;4976462;28;20038;-80
2023/09/23 01:23:27;;;;;;;2.63;0.85;;;11.70;99.90;;;;;;4977030;28;20034;-80
2023/09/23 01:25:52;;;;;;;3.67;1.08;;;11.70;99.90;;;;;;4975662;28;20034;-80
2023/09/23 01:28:18;;;;;;;1.00;0.82;;;11.70;99.90;;;;;;4976749;28;20062;-80
2023/09/23 01:30:45;;;;;;;1.48;0.85;;;11.70;99.90;;;;;;4976923;28;20139;-80
2023/09/23 01:33:13;;;;;;;1.65;1.02;;;11.70;99.90;;;;;;4976513;28;20026;-80
2023/09/23 01:35:39;;;;;;;2.65;0.90;;;11.80;99.90;;;;;;4968351;28;20034;-80
2023/09/23 01:38:06;;;;;;;1.85;0.90;;;11.80;99.90;;;;;;4976356;28;20031;-80
2023/09/23 01:40:32;;;;;;;1.38;0.98;;;11.80;99.90;;;;;;4971854;28;20062;-80
2023/09/23 01:42:58;;;;;;;2.22;1.05;;;11.80;99.90;;;;;;4975675;28;20481;-80
2023/09/23 01:45:25;;;;;;;1.73;0.90;;;11.80;99.90;;;;;;4975245;28;20050;-80
2023/09/23 01:47:52;;;;;;;0.98;0.80;;;11.80;99.90;;;;;;4976107;28;20034;-80
2023/09/23 01:50:18;;;;;;;2.00;0.80;;;11.80;99.90;;;;;;4975926;28;20058;-80
2023/09/23 01:52:47;;;;;;;1.20;0.77;;;11.80;99.90;;;;;;4976131;28;20019;-81
2023/09/23 01:55:12;;;;;;;1.23;0.90;;;11.80;99.90;;;;;;4975172;28;20033;-80
2023/09/23 01:57:39;;;;;;;1.95;0.60;;;11.80;99.90;;;;;;4975721;28;20452;-80
2023/09/23 02:00:06;;;;;;;1.38;0.70;;;11.80;99.90;;;;;;4975674;28;20098;-80
2023/09/23 02:02:33;;;;;;;1.02;0.82;;;11.80;99.90;;;;;;4975875;28;20113;-80
2023/09/23 02:04:59;;;;;;;3.50;0.80;;;11.80;99.90;;;;;;4974538;28;20030;-80
2023/09/23 02:07:26;;;;;;;2.00;1.05;;;11.80;99.90;;;;;;4975512;28;20034;-80
2023/09/23 02:09:52;;;;;;;2.13;0.82;;;11.80;99.90;;;;;;4974855;28;20177;-80
2023/09/23 02:12:17;;;;;;;1.05;0.70;;;11.80;99.90;;;;;;4974889;28;20054;-80
2023/09/23 02:14:43;;;;;;;1.67;0.95;;;11.80;99.90;;;;;;4974740;28;20500;-80
2023/09/23 02:17:09;;;;;;;0.82;0.65;;;11.80;99.90;;;;;;4974306;28;20491;-80
2023/09/23 02:19:35;;;;;;;1.80;0.80;;;11.90;99.90;;;;;;4974646;28;20060;-80
2023/09/23 02:22:05;;;;;;;1.75;0.82;;;11.90;99.90;;;;;;4974571;28;20051;-80
2023/09/23 02:24:32;;;;;;;1.08;0.80;;;11.90;99.90;;;;;;4973520;28;20646;-80
2023/09/23 02:26:58;;;;;;;0.73;0.70;;;11.90;99.90;;;;;;4975628;28;20035;-80
2023/09/23 02:29:23;;;;;;;1.95;0.73;;;11.90;99.90;;;;;;4976047;28;20062;-80
2023/09/23 02:31:50;;;;;;;1.33;0.80;;;11.90;99.90;;;;;;4975747;28;20427;-80
2023/09/23 02:34:16;;;;;;;1.17;0.80;;;11.80;99.90;;;;;;4975962;28;20034;-80
2023/09/23 02:36:43;;;;;;;4.50;0.80;;;11.90;99.90;;;;;;4975642;28;20031;-80
2023/09/23 02:39:14;;;;;;;1.20;0.70;;;11.80;99.90;;;;;;4976015;28;20085;-80
2023/09/23 02:41:40;;;;;;;1.67;0.90;;;11.90;99.90;;;;;;4970356;28;20031;-80
2023/09/23 02:44:05;;;;;;;1.45;0.70;;;11.80;99.90;;;;;;4975739;28;20026;-80
2023/09/23 02:46:31;;;;;;;2.30;0.80;;;11.80;99.90;;;;;;4975607;28;21135;-80
2023/09/23 02:48:58;;;;;;;1.63;0.80;;;11.80;99.90;;;;;;4976160;28;20552;-80
2023/09/23 02:51:24;;;;;;;1.48;0.88;;;11.80;99.90;;;;;;4975047;28;20529;-80
2023/09/23 02:53:50;;;;;;;3.45;1.40;;;11.80;99.90;;;;;;4980122;28;20050;-80
2023/09/23 02:56:16;;;;;;;1.85;0.80;;;11.80;99.90;;;;;;4982078;28;20042;-80
2023/09/23 02:58:43;;;;;;;18.10;1.95;;;11.80;99.90;;;;;;4982314;28;20030;-80
2023/09/23 03:01:14;;;;;;;3.28;0.90;;;11.80;99.90;;;;;;4982105;28;20023;-80
2023/09/23 03:03:40;;;;;;;2.53;0.93;;;11.80;99.90;;;;;;4982579;28;20034;-80
2023/09/23 03:06:07;;;;;;;1.20;1.00;;;11.80;99.90;;;;;;4981468;28;20034;-80
2023/09/23 03:08:36;;;;;;;1.90;0.90;;;11.80;99.90;;;;;;4981913;28;20038;-80
2023/09/23 03:11:04;;;;;;;1.23;0.70;;;11.80;99.90;;;;;;4981702;28;20485;-80
2023/09/23 03:13:31;;;;;;;1.88;1.00;;;11.80;99.90;;;;;;4982280;28;20031;-80
2023/09/23 03:16:08;;;;;;;2.25;0.90;;;11.80;99.90;;;;;;4981484;28;20043;-80
2023/09/23 03:18:44;;;;;;;3.50;1.15;;;11.70;99.90;;;;;;4982184;28;20034;-80
2023/09/23 03:21:10;;;;;;;2.83;0.90;;;11.70;99.90;;;;;;4981942;28;20031;-80
2023/09/23 03:23:40;;;;;;;2.95;1.05;;;11.80;99.90;;;;;;4982198;28;20085;-80
2023/09/23 03:26:09;;;;;;;2.90;1.08;;;11.70;99.90;;;;;;4981197;28;20033;-80
2023/09/23 03:28:39;;;;;;;1.60;0.90;;;11.70;99.90;;;;;;4981884;28;20041;-80
2023/09/23 03:31:07;;;;;;;1.48;0.90;;;11.70;99.90;;;;;;4982083;28;20023;-80
2023/09/23 03:33:32;;;;;;;3.00;1.05;;;11.70;99.90;;;;;;4982372;28;20430;-80
2023/09/23 03:35:58;;;;;;;3.22;1.10;;;11.70;99.90;;;;;;4981126;28;20026;-80
2023/09/23 03:38:24;;;;;;;3.22;1.20;;;11.70;99.90;;;;;;4981598;28;20026;-80
2023/09/23 03:40:56;;;;;;;3.38;1.10;;;11.70;99.90;;;;;;4975931;28;20074;-80
2023/09/23 03:43:22;;;;;;;2.17;1.17;;;11.70;99.90;;;;;;4981729;28;20027;-80
2023/09/23 03:45:47;;;;;;;3.00;1.20;;;11.70;99.90;;;;;;4980978;28;20451;-80
2023/09/23 03:48:16;;;;;;;2.25;1.20;;;11.70;99.90;;;;;;4981447;28;20501;-80
2023/09/23 03:50:42;;;;;;;3.05;1.88;;;11.60;99.90;;;;;;4981433;28;20023;-80
2023/09/23 03:53:09;;;;;;;3.25;1.45;;;11.60;99.90;;;;;;4981375;28;20547;-80
2023/09/23 03:55:34;;;;;;;3.63;1.38;;;11.60;99.90;;;;;;4980848;28;20033;-80
2023/09/23 03:58:01;;;;;;;2.38;1.40;;;11.60;99.90;;;;;;4981007;28;20533;-80
2023/09/23 04:00:27;;;;;;;5.30;1.58;;;11.50;99.90;;;;;;4980814;28;20023;-80
2023/09/23 04:02:54;;;;;;;3.58;1.20;;;11.50;99.90;;;;;;4980978;28;20049;-80
2023/09/23 04:05:20;;;;;;;5.72;1.73;;;11.50;99.90;;;;;;4976968;28;20050;-80
2023/09/23 04:07:49;;;;;;;2.45;1.20;;;11.40;99.90;;;;;;4977967;28;20091;-80
2023/09/23 04:10:23;;;;;;;2.53;1.45;;;11.40;99.90;;;;;;4976965;28;20573;-80
2023/09/23 04:12:54;;;;;;;3.47;1.38;;;11.30;99.90;;;;;;4977250;28;20022;-80
2023/09/23 04:15:21;;;;;;;3.45;1.38;;;11.30;99.90;;;;;;4975807;28;20035;-80
2023/09/23 04:17:47;;;;;;;4.63;1.70;;;11.30;99.90;;;;;;4976251;28;20470;-80
2023/09/23 04:20:14;;;;;;;3.08;1.42;;;11.20;99.90;;;;;;4975883;28;20045;-80
2023/09/23 04:22:41;;;;;;;4.47;1.80;;;11.20;99.90;;;;;;4968806;28;20446;-80
2023/09/23 04:25:08;;;;;;;3.83;1.50;;;11.20;99.90;;;;;;4975301;28;20427;-80
2023/09/23 04:27:36;;;;;;;5.00;1.65;;;11.20;99.90;;;;;;4975473;28;20038;-80
2023/09/23 04:30:11;;;;;;;2.20;1.50;;;11.10;99.90;;;;;;4975775;28;20114;-80
2023/09/23 04:32:39;;;;;;;;;;;11.10;99.90;;;;;;4976079;28;20026;-80
2023/09/23 04:35:09;;;;;;;2.80;1.52;;;11.10;99.90;;;;;;4974546;28;19960;-80
2023/09/23 04:37:38;;;;;;;4.75;1.60;;;11.10;99.90;;;;;;4975354;28;20426;-80
2023/09/23 04:40:09;;;;;;;3.03;1.35;;;11.10;99.90;;;;;;4970809;28;20031;-80
2023/09/23 04:42:35;;;;;;;4.18;1.50;;;11.10;99.90;;;;;;4974772;28;20035;-80
2023/09/23 04:45:02;;;;;;;4.72;2.20;;;11.10;99.90;;;;;;4977298;28;20045;-80
2023/09/23 04:47:27;;;;;;;3.97;1.92;;;11.10;99.90;;;;;;4978117;28;20034;-80
2023/09/23 04:49:55;;;;;;;2.30;1.65;;;11.10;99.90;;;;;;4978018;28;20035;-80
2023/09/23 04:52:20;;;;;;;3.97;1.70;;;11.10;99.90;;;;;;4977877;28;20059;-80
2023/09/23 04:54:46;;;;;;;2.53;1.67;;;11.10;99.90;;;;;;4977537;28;20066;-80
2023/09/23 04:57:13;;;;;;;2.33;1.73;;;11.10;99.90;;;;;;4978719;28;20038;-80
2023/09/23 04:59:39;;;;;;;3.30;1.77;;;11.10;99.90;;;;;;4978010;28;20030;-80
2023/09/23 05:02:05;;;;;;;4.13;1.40;;;11.10;99.90;;;;;;4977459;28;20026;-80
2023/09/23 05:04:30;;;;;;;5.15;1.70;;;11.20;99.90;;;;;;4977543;28;20034;-80
2023/09/23 05:06:56;;;;;;;3.83;1.80;;;11.20;99.90;;;;;;4978524;28;20030;-80
2023/09/23 05:09:25;;;;;;;3.58;1.65;;;11.20;99.90;;;;;;4978225;28;20035;-80
2023/09/23 05:11:51;;;;;;;2.72;1.75;;;11.20;99.90;;;;;;4978577;28;20077;-80
2023/09/23 05:14:17;;;;;;;4.10;1.70;;;11.20;99.90;;;;;;4978345;28;20026;-80
2023/09/23 05:16:42;;;;;;;3.63;1.65;;;11.20;99.90;;;;;;4977946;28;20015;-81
2023/09/23 05:19:09;;;;;;;5.15;1.92;;;11.30;99.90;;;;;;4977754;28;20042;-80
2023/09/23 05:21:35;;;;;;;3.72;1.90;;;11.20;99.90;;;;;;4977859;28;20054;-81
2023/09/23 05:24:01;;;;;;;5.38;2.20;;;11.30;99.90;;;;;;4977155;28;20022;-80
2023/09/23 05:26:27;;;;;;;3.90;1.95;;;11.30;99.90;;;;;;4976961;28;20027;-80
2023/09/23 05:28:53;;;;;;;4.32;2.20;;;11.30;99.90;;;;;;4977449;28;20102;-80
2023/09/23 05:31:18;;;;;;;4.18;2.42;;;11.30;99.90;;;;;;4977884;28;20101;-80
2023/09/23 05:33:44;;;;;;;5.07;2.42;;;11.30;99.90;;;;;;4977672;28;20023;-80
2023/09/23 05:36:10;;;;;;;5.75;2.95;;;11.30;99.90;;;;;;4976830;28;20480;-80
2023/09/23 05:38:36;;;;;;;11.57;3.63;;;11.30;99.90;;;;;;4977147;28;20081;-80
2023/09/23 05:41:03;;;;;;;3.70;2.60;;;11.30;99.90;;;;;;4971876;28;20031;-81
2023/09/23 05:43:29;;;;;;;4.35;2.60;;;11.30;99.90;;;;;;4976879;28;20050;-80
2023/09/23 05:45:54;;;;;;;3.97;2.45;;;11.30;99.90;;;;;;4976645;28;20417;-81
2023/09/23 05:48:20;;;;;;;6.60;2.90;;;11.40;99.90;;;;;;4976590;28;20107;-81
2023/09/23 05:50:46;;;;;;;5.43;2.40;;;11.40;99.90;;;;;;4976163;28;20023;-80
2023/09/23 05:53:11;;;;;;;4.47;2.50;;;11.40;99.90;;;;;;4975949;28;20027;-81
2023/09/23 05:55:37;;;;;;;4.75;2.42;;;11.40;99.90;;;;;;4971018;28;20027;-81
2023/09/23 05:58:03;;;;;;;5.13;2.45;;;11.40;99.90;;;;;;4974423;28;20034;-81
2023/09/23 06:00:28;;;;;;;3.85;2.25;;;11.40;99.90;;;;;;4972195;28;20062;-81
2023/09/23 06:02:54;;;;;;;2.75;2.45;;;11.40;99.90;;;;;;4971533;28;20024;-81
2023/09/23 06:05:20;;;;;;;3.70;2.00;;;11.50;99.90;;;;;;4964293;28;20434;-81
2023/09/23 06:07:45;;;;;;;3.70;2.30;;;11.50;99.90;;;;;;4971113;28;20134;-81
2023/09/23 06:10:11;;;;;;;2.97;2.03;;;11.50;99.90;;;;;;4967426;28;20026;-81
2023/09/23 06:12:37;;;;;;;4.22;2.20;;;11.50;99.90;;;;;;4972438;28;20023;-81
2023/09/23 06:15:05;;;;;;;5.05;2.15;;;11.60;99.90;;;;;;4974209;28;20382;-81
2023/09/23 06:17:32;;;;;;;4.97;2.15;;;11.60;99.90;;;;;;4976899;28;20133;-81
2023/09/23 06:19:58;;;;;;;6.13;2.33;;;11.60;99.90;;;;;;4976813;28;20030;-81
2023/09/23 06:22:25;;;;;;;7.65;2.20;;;11.60;99.90;;;;;;4977157;28;20038;-81
2023/09/23 06:24:51;;;;;;;4.65;3.03;;;11.70;99.90;;;;;;4974717;28;20053;-81
2023/09/23 06:27:18;;;;;;;4.72;2.03;;;11.70;99.90;;;;;;4974223;28;20106;-81
2023/09/23 06:29:44;;;;;;;4.00;2.10;;;11.70;99.90;;;;;;4972023;28;20048;-81
2023/09/23 06:32:10;;;;;;;4.35;2.42;;;11.70;99.90;;;;;;4977112;28;20031;-81
2023/09/23 06:34:36;;;;;;;3.35;2.25;;;11.70;99.90;;;;;;4976195;28;20027;-80
2023/09/23 06:37:02;;;;;;;3.70;2.33;;;11.80;99.90;;;;;;4972252;28;20043;-81
2023/09/23 06:39:28;;;;;;;6.78;2.70;;;11.80;99.90;;;;;;4971894;28;20023;-81
2023/09/23 06:41:54;;;;;;;3.20;2.42;;;11.90;99.90;;;;;;4969314;28;20438;-81
2023/09/23 06:44:19;;;;;;;2.42;1.90;;;11.80;99.90;;;;;;4969003;28;20122;-81
2023/09/23 06:46:45;;;;;;;3.00;1.92;;;11.80;99.90;;;;;;4973010;28;20023;-81
2023/09/23 06:49:11;;;;;;;2.95;2.28;;;11.90;99.90;;;;;;4976398;28;20093;-81
2023/09/23 06:51:36;;;;;;;4.28;2.42;;;11.80;99.90;;;;;;4971769;28;20026;-81
2023/09/23 06:54:02;;;;;;;4.97;2.78;;;11.90;99.90;;;;;;4954503;28;20039;-81
2023/09/23 06:56:28;;;;;;;4.07;2.30;;;11.80;99.90;;;;;;4970127;28;20054;-81
2023/09/23 06:58:53;;;;;;;3.75;2.25;;;11.90;99.90;;;;;;4974559;28;20015;-81
2023/09/23 07:01:21;;;;;;;4.20;2.20;;;11.90;99.90;;;;;;4973915;28;20022;-81
2023/09/23 07:03:47;;;;;;;4.13;2.33;;;11.90;99.90;;;;;;4971322;28;20027;-81
2023/09/23 07:06:12;;;;;;;4.05;2.20;;;11.90;99.90;;;;;;4975542;28;20030;-82
2023/09/23 07:08:38;;;;;;;4.80;2.70;;;12.00;99.90;;;;;;4973786;28;20031;-81
2023/09/23 07:11:03;;;;;;;2.50;2.00;;;12.00;99.90;;;;;;4970489;28;20083;-81
2023/09/23 07:13:30;;;;;;;5.60;2.05;;;12.00;99.90;;;;;;4975322;28;20034;-81
2023/09/23 07:15:56;;;;;;;3.05;2.00;;;12.00;99.90;;;;;;4974173;28;20401;-81
2023/09/23 07:18:21;;;;;;;4.32;2.05;;;12.10;99.90;;;;;;4973354;28;20019;-81
2023/09/23 07:20:47;;;;;;;3.75;2.10;;;12.20;99.90;;;;;;4976064;28;20022;-81
2023/09/23 07:23:13;;;;;;;3.67;1.90;;;12.20;99.90;;;;;;4974023;28;20081;-81
2023/09/23 07:25:39;;;;;;;2.85;1.80;;;12.30;99.90;;;;;;4970077;28;20047;-81
2023/09/23 07:28:08;;;;;;;4.28;1.70;;;12.30;99.90;;;;;;4972374;28;20023;-81
2023/09/23 07:30:36;;;;;;;3.55;1.70;;;12.40;99.90;;;;;;4964945;28;20058;-82
2023/09/23 07:33:02;;;;;;;3.42;1.60;;;12.50;99.90;;;;;;4968767;28;20027;-81
2023/09/23 07:35:34;;;;;;;3.25;1.60;;;12.60;99.90;;;;;;4971673;28;20027;-81
2023/09/23 07:38:01;;;;;;;2.83;1.55;;;12.60;99.90;;;;;;4970830;28;20039;-81
2023/09/23 07:40:28;;;;;;;2.38;1.52;;;12.70;99.90;;;;;;4974837;28;20389;-81
2023/09/23 07:42:53;;;;;;;1.70;1.40;;;12.70;99.90;;;;;;4977754;28;20488;-81
2023/09/23 07:45:19;;;;;;;4.25;1.63;;;12.70;99.90;;;;;;4973865;28;20106;-81
2023/09/23 07:47:45;;;;;;;5.50;1.27;;;12.70;99.90;;;;;;4976591;28;20066;-81
2023/09/23 07:50:11;;;;;;;3.42;1.13;;;12.70;99.90;;;;;;4971472;28;20034;-81
2023/09/23 07:52:37;;;;;;;3.80;1.50;;;12.70;99.90;;;;;;4972880;28;20018;-81
2023/09/23 07:55:04;;;;;;;4.45;1.40;;;12.80;99.90;;;;;;4974889;28;20019;-81
2023/09/23 07:57:30;;;;;;;2.08;1.40;;;12.80;99.90;;;;;;4975831;28;20027;-81
2023/09/23 07:59:56;;;;;;;2.20;1.25;;;12.80;99.90;;;;;;4976076;28;20022;-81
2023/09/23 08:02:21;;;;;;;2.58;1.10;;;12.80;99.90;;;;;;4976516;28;20044;-81
2023/09/23 08:04:47;;;;;;;2.55;1.23;;;12.90;99.90;;;;;;4972541;28;20015;-81
2023/09/23 08:07:13;;;;;;;2.83;1.27;;;12.90;99.90;;;;;;4973976;28;20089;-81
2023/09/23 08:09:38;;;;;;;2.38;1.10;;;12.90;99.90;;;;;;4973403;28;20121;-81
2023/09/23 08:12:04;;;;;;;2.40;1.30;;;13.00;99.90;;;;;;4973357;28;20030;-82
2023/09/23 08:14:30;;;;;;;2.40;1.10;;;13.00;99.90;;;;;;4972749;28;20027;-81
2023/09/23 08:16:55;;;;;;;1.88;0.98;;;13.00;99.90;;;;;;4974343;28;20019;-81
2023/09/23 08:19:23;;;;;;;3.35;1.10;;;13.00;99.90;;;;;;4974114;28;20406;-81
2023/09/23 08:21:48;;;;;;;2.10;1.23;;;13.00;99.90;;;;;;4974195;28;20033;-82
2023/09/23 08:24:14;;;;;;;2.00;1.00;;;13.00;99.90;;;;;;4972772;28;20430;-82
2023/09/23 08:26:40;;;;;;;2.55;1.00;;;13.00;99.90;;;;;;4973943;28;20027;-81
2023/09/23 08:29:05;;;;;;;2.22;1.08;;;13.00;99.90;;;;;;4973434;28;20035;-81
2023/09/23 08:31:31;;;;;;;2.42;1.10;;;13.00;99.90;;;;;;4973803;28;20113;-81
2023/09/23 08:33:58;;;;;;;2.80;1.15;;;13.00;99.90;;;;;;4976656;28;20049;-82
2023/09/23 08:36:24;;;;;;;2.63;1.00;;;13.00;99.90;;;;;;4976005;28;20454;-81
2023/09/23 08:38:49;;;;;;;2.15;1.00;;;13.00;99.90;;;;;;4973616;28;20046;-81
2023/09/23 08:41:18;;;;;;;1.90;0.90;;;13.00;99.90;;;;;;4975032;28;20022;-82
2023/09/23 08:43:44;;;;;;;4.18;1.20;;;13.10;99.90;;;;;;4973689;28;20023;-81
2023/09/23 08:46:12;;;;;;;2.72;1.10;;;13.10;99.90;;;;;;4975659;28;20500;-81
2023/09/23 08:48:38;;;;;;;1.63;0.95;;;13.10;99.90;;;;;;4977326;28;20050;-81
2023/09/23 08:51:06;;;;;;;2.22;0.93;;;13.20;99.90;;;;;;4975415;28;20022;-81
2023/09/23 08:53:38;;;;;;;2.50;1.35;;;13.20;99.90;;;;;;4976006;28;20022;-81
2023/09/23 08:56:08;;;;;;;1.73;1.00;;;13.20;99.90;;;;;;4975268;28;20126;-81
2023/09/23 08:58:33;;;;;;;1.75;0.98;;;13.30;99.90;;;;;;4976623;28;20023;-81
2023/09/23 09:01:00;;;;;;;2.83;1.17;;;13.30;99.90;;;;;;4976447;28;20508;-81
2023/09/23 09:03:26;;;;;;;5.30;1.52;;;13.40;99.90;;;;;;4973400;28;20027;-81
2023/09/23 09:05:52;;;;;;;2.53;1.17;;;13.50;99.90;;;;;;4974673;28;20030;-82
2023/09/23 09:08:18;;;;;;;3.97;1.20;;;13.60;99.90;;;;;;4978044;28;20047;-82
2023/09/23 09:10:44;;;;;;;2.70;1.10;;;13.70;99.90;;;;;;4978174;28;20374;-81
2023/09/23 09:13:10;;;;;;;2.97;1.15;;;13.80;99.90;;;;;;4978619;28;20109;-81
2023/09/23 09:15:37;;;;;;;4.18;1.10;;;13.90;99.90;;;;;;4977349;28;20062;-81
2023/09/23 09:18:04;;;;;;;2.22;0.90;;;14.00;99.90;;;;;;4978329;28;20371;-81
2023/09/23 09:20:30;;;;;;;3.92;1.08;;;14.10;99.90;;;;;;4978456;28;20105;-81
2023/09/23 09:22:55;;;;;;;3.40;1.10;;;14.20;99.90;;;;;;4978401;28;20026;-81
2023/09/23 09:25:21;;;;;;;2.65;1.00;;;14.30;99.90;;;;;;4977285;28;20465;-81
2023/09/23 09:27:48;;;;;;;1.45;1.00;;;14.50;99.90;;;;;;4978625;28;20411;-81
2023/09/23 09:30:13;;;;;;;2.95;1.00;;;14.50;99.90;;;;;;4978012;28;20098;-81
2023/09/23 09:32:44;;;;;;;2.40;0.90;;;14.60;99.90;;;;;;4977916;28;20078;-81
2023/09/23 09:35:17;;;;;;;2.50;1.00;;;14.70;99.90;;;;;;4974959;28;20023;-82
2023/09/23 09:37:44;;;;;;;1.98;1.08;;;14.80;99.90;;;;;;4977057;28;20054;-81
2023/09/23 09:40:16;;;;;;;3.50;1.15;;;14.80;99.90;;;;;;4978171;28;20106;-82
2023/09/23 09:42:50;;;;;;;1.42;0.90;;;14.70;99.90;;;;;;4977909;28;20031;-81
2023/09/23 09:45:19;;;;;;;2.72;1.20;;;14.70;99.90;;;;;;4975146;28;20702;-82
2023/09/23 09:47:45;;;;;;;1.85;1.00;;;14.60;99.90;;;;;;4972593;28;20041;-82
2023/09/23 09:50:14;;;;;;;2.83;1.15;;;14.60;99.90;;;;;;4971355;28;20110;-82
2023/09/23 09:52:43;;;;;;;1.77;1.05;;;14.70;99.90;;;;;;4973923;28;20035;-81
2023/09/23 09:55:18;;;;;;;2.35;1.00;;;14.70;99.90;;;;;;4972957;28;20394;-81
2023/09/23 09:57:44;;;;;;;;;;;14.80;99.90;;;;;;4973963;28;20445;-81
2023/09/23 10:00:15;;;;;;;2.22;1.00;;;14.80;99.90;;;;;;4973151;28;19909;-82
2023/09/23 10:02:43;;;;;;;3.50;1.00;;;14.80;99.90;;;;;;4972590;28;20019;-81
2023/09/23 10:05:18;;;;;;;2.25;1.00;;;14.80;99.90;;;;;;4969810;28;20110;-81
2023/09/23 10:07:56;;;;;;;2.13;1.02;;;15.00;99.90;;;;;;4975591;28;20031;-82
2023/09/23 10:10:34;;;;;;;3.55;1.10;;;15.10;99.90;;;;;;4974734;28;20035;-81
2023/09/23 10:13:13;;;;;;;2.72;1.10;;;15.30;99.90;;;;;;4974905;28;20031;-81
2023/09/23 10:15:40;;;;;;;3.33;1.08;;;15.30;99.90;;;;;;4974420;28;20033;-81
2023/09/23 10:18:19;;;;;;;3.22;1.00;;;15.40;99.90;;;;;;4975180;28;20033;-82
2023/09/23 10:20:50;;;;;;;2.80;1.00;;;15.40;99.90;;;;;;4972152;28;20097;-82
2023/09/23 10:23:17;;;;;;;2.13;0.93;;;15.40;99.90;;;;;;4971949;28;20399;-82
2023/09/23 10:25:44;;;;;;;3.05;1.00;;;15.40;99.90;;;;;;4970771;28;20019;-82
2023/09/23 10:28:22;;;;;;;2.47;0.98;;;15.40;99.90;;;;;;4974321;28;20034;-82
2023/09/23 10:31:04;;;;;;;3.20;1.00;;;15.40;99.90;;;;;;4973097;28;20019;-81
2023/09/23 10:33:30;;;;;;;2.83;1.02;;;15.40;99.90;;;;;;4971557;28;20120;-82
2023/09/23 10:35:58;;;;;;;1.73;1.05;;;15.40;99.90;;;;;;4965549;28;20042;-82
2023/09/23 10:38:25;;;;;;;1.92;0.90;;;15.40;99.90;;;;;;4966277;28;20031;-82
2023/09/23 10:40:54;;;;;;;2.20;0.73;;;15.30;99.90;;;;;;4965899;28;20121;-82
2023/09/23 10:43:23;;;;;;;1.70;1.10;;;15.40;99.90;;;;;;4964963;28;20130;-82
2023/09/23 10:45:53;;;;;;;2.53;0.90;;;15.50;99.90;;;;;;4964490;28;20050;-82
2023/09/23 10:48:19;;;;;;;2.05;0.82;;;15.60;99.90;;;;;;4965098;28;20127;-82
2023/09/23 10:50:45;;;;;;;2.47;0.88;;;15.60;99.90;;;;;;4963502;28;20029;-82
2023/09/23 10:53:14;;;;;;;1.77;0.85;;;15.70;99.90;;;;;;4965034;28;20580;-82
2023/09/23 10:55:40;;;;;;;2.20;0.95;;;15.70;99.90;;;;;;4964420;28;20544;-82
2023/09/23 10:58:09;;;;;;;2.20;1.10;;;15.70;99.90;;;;;;4965328;28;20027;-82
2023/09/23 11:00:39;;;;;;;2.58;1.05;;;15.70;99.90;;;;;;4965726;28;20042;-81
2023/09/23 11:03:09;;;;;;;2.15;1.10;;;15.70;99.90;;;;;;4967478;28;20046;-82
2023/09/23 11:05:38;;;;;;;1.40;0.80;;;15.70;99.90;;;;;;4974266;28;20600;-82
2023/09/23 11:08:06;;;;;;;1.50;0.90;;;15.70;99.90;;;;;;4974831;28;20038;-82
2023/09/23 11:10:34;;;;;;;2.80;0.82;;;15.70;99.90;;;;;;4974542;28;20027;-82
2023/09/23 11:13:00;;;;;;;1.50;0.90;;;15.60;99.90;;;;;;4977007;28;20026;-81
2023/09/23 11:15:25;;;;;;;2.38;0.88;;;15.70;99.90;;;;;;4978836;28;20441;-82
2023/09/23 11:17:54;;;;;;;2.47;0.98;;;15.70;99.90;;;;;;4981212;28;20031;-81
2023/09/23 11:20:30;;;;;;;1.73;1.02;;;15.70;99.90;;;;;;4970967;28;20442;-82
2023/09/23 11:23:05;;;;;;;3.60;1.00;;;15.80;99.90;;;;;;4979461;28;20022;-82
2023/09/23 11:25:35;;;;;;;3.15;1.00;;;15.90;99.90;;;;;;4976477;28;20027;-82
2023/09/23 11:28:00;;;;;;;1.15;0.80;;;15.90;99.90;;;;;;4978958;28;20039;-82
2023/09/23 11:30:26;;;;;;;1.30;0.90;;;16.00;99.90;;;;;;4981033;28;20034;-82
2023/09/23 11:32:53;;;;;;;1.65;1.00;;;16.00;99.90;;;;;;4976786;28;20046;-82
2023/09/23 11:35:20;;;;;;;2.00;0.98;;;16.00;99.90;;;;;;4974583;28;20035;-82
2023/09/23 11:37:47;;;;;;;2.03;0.90;;;16.10;99.90;;;;;;4975617;28;20035;-82
2023/09/23 11:40:14;;;;;;;1.67;0.93;;;16.00;99.90;;;;;;4976261;28;20030;-82
2023/09/23 11:42:40;;;;;;;4.95;1.17;;;16.10;99.90;;;;;;4975167;28;20027;-81
2023/09/23 11:45:06;;;;;;;1.63;0.88;;;16.10;99.90;;;;;;4978934;28;20042;-81
2023/09/23 11:47:32;;;;;;;3.50;1.00;;;16.10;99.90;;;;;;4980225;28;20058;-82
2023/09/23 11:49:57;;;;;;;1.58;1.00;;;16.00;99.90;;;;;;4976877;28;20443;-81
2023/09/23 11:52:23;;;;;;;2.05;1.00;;;16.00;99.90;;;;;;4978929;28;20050;-82
2023/09/23 11:54:48;;;;;;;3.97;1.08;;;16.10;99.90;;;;;;4972790;28;20535;-82
2023/09/23 11:57:14;;;;;;;1.73;0.90;;;16.10;99.90;;;;;;4975155;28;20021;-82
2023/09/23 11:59:40;;;;;;;2.35;1.08;;;16.10;99.90;;;;;;4974708;28;20027;-82
2023/09/23 12:02:06;;;;;;;2.35;1.10;;;16.10;99.90;;;;;;4972701;28;20026;-82
2023/09/23 12:04:32;;;;;;;2.80;1.10;;;16.10;99.90;;;;;;4971690;28;20027;-82
2023/09/23 12:06:58;;;;;;;2.42;1.00;;;16.00;99.90;;;;;;4974708;28;20549;-82
2023/09/23 12:09:24;;;;;;;2.35;1.25;;;16.00;99.90;;;;;;4971179;28;20038;-81
2023/09/23 12:11:52;;;;;;;2.67;0.93;;;15.90;99.90;;;;;;4973795;28;20031;-82
2023/09/23 12:14:21;;;;;;;2.08;0.88;;;15.80;99.90;;;;;;4970623;28;20149;-82
2023/09/23 12:16:46;;;;;;;1.65;1.00;;;15.80;99.90;;;;;;4964896;28;20034;-82
2023/09/23 12:19:12;;;;;;;2.03;1.08;;;15.90;99.90;;;;;;4965017;28;20035;-82
2023/09/23 12:21:37;;;;;;;1.83;0.90;;;15.90;99.90;;;;;;4967325;28;20031;-82
2023/09/23 12:24:04;;;;;;;2.80;1.10;;;15.90;99.90;;;;;;4972233;28;20811;-82
2023/09/23 12:26:31;;;;;;;2.00;1.23;;;15.80;99.90;;;;;;4968447;28;20034;-82
2023/09/23 12:28:57;;;;;;;2.05;1.20;;;15.80;99.90;;;;;;4973205;28;20039;-80
2023/09/23 12:31:23;;;;;;;1.67;0.93;;;15.90;99.90;;;;;;4976175;28;20520;-82
2023/09/23 12:33:50;;;;;;;2.08;1.30;;;15.90;99.90;;;;;;4975170;28;20026;-82
2023/09/23 12:36:16;;;;;;;2.53;1.17;;;15.90;99.90;;;;;;4975341;28;20375;-82
2023/09/23 12:38:42;;;;;;;2.38;1.10;;;15.90;99.90;;;;;;4978906;28;20037;-82
2023/09/23 12:41:08;;;;;;;2.83;1.08;;;15.90;99.90;;;;;;4973080;28;20086;-81
2023/09/23 12:43:33;;;;;;;3.25;1.13;;;16.00;99.90;;;;;;4969162;28;20043;-82
2023/09/23 12:45:59;;;;;;;6.40;1.40;;;15.90;99.90;;;;;;4972693;28;20074;-80